< < Back
Terminal Aerodrome Forecast


Current Version              Previous Versions:   1  2  3  4  5  6  7  8  9  

Terminal Aerodrome Forecast

854
FTUS42 KFFC 100930 AAC
TAFPDK
TAF AMD
KPDK 100930Z 1010/1106 30012G20KT P6SM SCT028 BKN040
      TEMPO 1010/1014 -SN BKN030
     FM101400 29014G24KT P6SM BKN050
     FM101800 29015G25KT P6SM SCT060
     FM110000 30010KT P6SM SCT100=



Latest METAR

603
SAUS70 KWBC 110000 RRK
MTRPDK
METAR KPDK 102353Z 28009KT 10SM OVC090 01/M12 A3011 RMK AO2 SLP219
T00061122 10028 21006 51012


USA.gov is the U.S. government's official web portal to all federal, state and local government web resources and services.